Terminal Aerodrome Forecast
Issued by NWS Quad Cities IA IL

Home | Current Version | Previous Version | Text Only | Print | Product List | Glossary On
Versions: 1 2 3 4 5 6 7 8 9 10 11 12 13 14 15
000
FTUS43 KDVN 021112 AAB
TAFDBQ
TAF AMD
KDBQ 021112Z 0211/0306 04004KT 1/4SM FG VV001
     FM021200 03006KT 1SM BR BKN004
     FM021300 04008KT 4SM BR SCT006
     FM021400 06009KT P6SM SCT015 SCT150
     FM022200 08004KT P6SM FEW120=

USA.gov is the U.S. government's official web portal to all federal, state and local government web resources and services.